Time;durP1;ratioP1;P1;durP2;ratioP2;P2;SDS_P1;SDS_P2;PMS_P1;PMS_P2;Temp;Humidity;BMP_temperature;BMP_pressure;BME280_temperature;BME280_humidity;BME280_pressure;Samples;Min_cycle;Max_cycle;Signal;HPM_P1;HPM_P2
2022/07/25 00:02:37;;;;;;;23.60;15.48;;;;;;;;;;5064259;28;20382;-70
2022/07/25 00:05:20;;;;;;;20.85;15.15;;;;;;;;;;5045629;28;20129;-71
2022/07/25 00:08:12;;;;;;;19.40;15.40;;;;;;;;;;5047227;28;20452;-71
2022/07/25 00:10:53;;;;;;;23.13;17.67;;;;;;;;;;5030379;28;20040;-71
2022/07/25 00:13:41;;;;;;;27.88;18.83;;;;;;;;;;5047373;28;20053;-71
2022/07/25 00:16:36;;;;;;;23.17;18.10;;;;;;;;;;5046729;28;20075;-70
2022/07/25 00:19:11;;;;;;;27.45;18.73;;;;;;;;;;5047030;28;20053;-71
2022/07/25 00:22:06;;;;;;;25.13;19.48;;;;;;;;;;5032219;28;20065;-70
2022/07/25 00:24:41;;;;;;;26.40;19.50;;;;;;;;;;5047294;28;20054;-71
2022/07/25 00:27:36;;;;;;;26.63;19.65;;;;;;;;;;5045717;28;20045;-71
2022/07/25 00:30:11;;;;;;;31.40;19.90;;;;;;;;;;5047178;28;20834;-71
2022/07/25 00:33:07;;;;;;;31.23;19.05;;;;;;;;;;5045483;28;20075;-71
2022/07/25 00:35:42;;;;;;;24.95;16.90;;;;;;;;;;5047029;28;20045;-71
2022/07/25 00:38:38;;;;;;;20.60;15.10;;;;;;;;;;5028615;28;20041;-70
2022/07/25 00:41:13;;;;;;;20.85;16.08;;;;;;;;;;5046781;28;20608;-71
2022/07/25 00:44:01;;;;;;;20.27;16.08;;;;;;;;;;5059538;28;20071;-71
2022/07/25 00:46:52;;;;;;;16.77;13.98;;;;;;;;;;5065554;28;20482;-70
2022/07/25 00:49:33;;;;;;;15.38;12.95;;;;;;;;;;5067020;28;20082;-71
2022/07/25 00:52:23;;;;;;;19.05;12.07;;;;;;;;;;5046844;28;20056;-71
2022/07/25 00:55:05;;;;;;;16.23;11.50;;;;;;;;;;5046930;28;20075;-71
2022/07/25 00:57:54;;;;;;;14.68;12.07;;;;;;;;;;5049912;28;20121;-70
2022/07/25 01:00:35;;;;;;;17.88;11.57;;;;;;;;;;5038286;28;20053;-71
2022/07/25 01:03:24;;;;;;;15.23;10.45;;;;;;;;;;5053556;28;20697;-71
2022/07/25 01:06:06;;;;;;;17.80;10.57;;;;;;;;;;5012596;28;20048;-70
2022/07/25 01:08:55;;;;;;;14.65;11.00;;;;;;;;;;5045224;28;20053;-71
2022/07/25 01:11:36;;;;;;;12.43;10.05;;;;;;;;;;5046431;28;20057;-71
2022/07/25 01:14:25;;;;;;;14.32;9.60;;;;;;;;;;5031924;28;20410;-72
2022/07/25 01:17:06;;;;;;;13.43;9.60;;;;;;;;;;5048658;28;20049;-71
2022/07/25 01:19:55;;;;;;;10.80;9.00;;;;;;;;;;5046217;28;20045;-71
2022/07/25 01:22:44;;;;;;;14.30;9.00;;;;;;;;;;5029096;28;20745;-72
2022/07/25 01:25:33;;;;;;;12.60;8.80;;;;;;;;;;5045944;28;20064;-72
2022/07/25 01:28:14;;;;;;;19.17;9.98;;;;;;;;;;5045420;28;20045;-69
2022/07/25 01:31:03;;;;;;;10.20;8.32;;;;;;;;;;5037263;28;20048;-70
2022/07/25 01:33:44;;;;;;;11.82;9.15;;;;;;;;;;5064086;28;20052;-70
2022/07/25 01:36:33;;;;;;;12.40;8.32;;;;;;;;;;5050108;28;20102;-69
2022/07/25 01:39:14;;;;;;;11.75;9.00;;;;;;;;;;5064780;28;20051;-70
2022/07/25 01:42:03;;;;;;;11.63;8.68;;;;;;;;;;5066058;28;20052;-69
2022/07/25 01:44:58;;;;;;;10.10;8.07;;;;;;;;;;5041788;28;20048;-68
2022/07/25 01:47:46;;;;;;;9.95;8.50;;;;;;;;;;5065651;28;20044;-69
2022/07/25 01:50:35;;;;;;;10.25;8.10;;;;;;;;;;5065684;28;20145;-70
2022/07/25 01:53:16;;;;;;;14.48;8.77;;;;;;;;;;5049077;28;20044;-70
2022/07/25 01:56:05;;;;;;;11.05;8.50;;;;;;;;;;5065671;28;20114;-70
2022/07/25 01:58:53;;;;;;;11.43;8.40;;;;;;;;;;5044282;28;20121;-69
2022/07/25 02:01:36;;;;;;;11.05;8.57;;;;;;;;;;5065510;28;20044;-69
2022/07/25 02:04:24;;;;;;;13.13;8.77;;;;;;;;;;5064912;28;20045;-69
2022/07/25 02:07:16;;;;;;;14.70;9.23;;;;;;;;;;5054901;28;20076;-69
2022/07/25 02:10:05;;;;;;;11.23;7.80;;;;;;;;;;5032123;28;20064;-70
2022/07/25 02:12:47;;;;;;;11.40;8.52;;;;;;;;;;5061183;28;20059;-70
2022/07/25 02:15:42;;;;;;;12.57;8.80;;;;;;;;;;5025137;28;20049;-69
2022/07/25 02:18:17;;;;;;;11.88;9.30;;;;;;;;;;5024958;28;20053;-70
2022/07/25 02:21:12;;;;;;;12.80;8.55;;;;;;;;;;5025824;28;20072;-70
2022/07/25 02:23:48;;;;;;;12.95;9.57;;;;;;;;;;5024554;28;20056;-71
2022/07/25 02:26:43;;;;;;;10.45;8.30;;;;;;;;;;5025332;28;20053;-71
2022/07/25 02:29:18;;;;;;;11.75;8.75;;;;;;;;;;5025253;28;20042;-71
2022/07/25 02:32:13;;;;;;;15.70;8.20;;;;;;;;;;5055016;28;20114;-71
2022/07/25 02:34:48;;;;;;;16.08;8.75;;;;;;;;;;5065214;28;20048;-70
2022/07/25 02:37:43;;;;;;;14.80;9.15;;;;;;;;;;5065092;28;20053;-71
2022/07/25 02:40:18;;;;;;;12.73;8.85;;;;;;;;;;5044906;28;20044;-71
2022/07/25 02:43:13;;;;;;;12.27;8.95;;;;;;;;;;5044954;28;20138;-71
2022/07/25 02:45:48;;;;;;;12.60;9.30;;;;;;;;;;5058044;28;20367;-71
2022/07/25 02:48:43;;;;;;;11.93;8.13;;;;;;;;;;5065045;28;20812;-70
2022/07/25 02:51:18;;;;;;;15.82;8.60;;;;;;;;;;5052323;28;20173;-71
2022/07/25 02:54:06;;;;;;;9.98;8.68;;;;;;;;;;5051350;28;20486;-70
2022/07/25 02:56:49;;;;;;;11.95;8.15;;;;;;;;;;5067890;28;20052;-71
2022/07/25 02:59:37;;;;;;;9.23;7.78;;;;;;;;;;5062416;28;20102;-71
2022/07/25 03:02:25;;;;;;;8.57;7.32;;;;;;;;;;5048536;28;20118;-71
2022/07/25 03:05:07;;;;;;;9.63;7.90;;;;;;;;;;5033694;28;20049;-71
2022/07/25 03:07:56;;;;;;;9.88;7.80;;;;;;;;;;5050835;28;20048;-71
2022/07/25 03:10:37;;;;;;;11.27;8.82;;;;;;;;;;5030433;28;20064;-71
2022/07/25 03:13:26;;;;;;;10.23;7.55;;;;;;;;;;5048386;28;20068;-71
2022/07/25 03:16:08;;;;;;;9.30;7.93;;;;;;;;;;4999020;28;20056;-69
2022/07/25 03:18:57;;;;;;;9.80;7.10;;;;;;;;;;5048802;28;20051;-71
2022/07/25 03:21:38;;;;;;;8.48;7.30;;;;;;;;;;5048478;28;20053;-70
2022/07/25 03:24:28;;;;;;;10.55;8.15;;;;;;;;;;5049380;28;20083;-71
2022/07/25 03:27:16;;;;;;;15.05;7.47;;;;;;;;;;5042261;28;20055;-72
2022/07/25 03:30:05;;;;;;;10.70;8.32;;;;;;;;;;5076981;28;20048;-70
2022/07/25 03:33:00;;;;;;;12.95;8.13;;;;;;;;;;5047831;28;20036;-71
2022/07/25 03:35:37;;;;;;;14.48;8.88;;;;;;;;;;5051593;28;20068;-71
2022/07/25 03:38:32;;;;;;;12.00;8.82;;;;;;;;;;5053264;28;20059;-71
2022/07/25 03:41:07;;;;;;;10.88;9.27;;;;;;;;;;5057562;28;20060;-70
2022/07/25 03:44:02;;;;;;;9.73;8.38;;;;;;;;;;5032909;28;20067;-71
2022/07/25 03:46:44;;;;;;;10.30;8.48;;;;;;;;;;5055066;28;20126;-71
2022/07/25 03:49:32;;;;;;;12.88;9.68;;;;;;;;;;5057305;28;20125;-71
2022/07/25 03:52:14;;;;;;;13.18;9.20;;;;;;;;;;5032267;28;20051;-71
2022/07/25 03:55:03;;;;;;;10.77;8.55;;;;;;;;;;5056173;28;20048;-72
2022/07/25 03:57:44;;;;;;;12.30;8.88;;;;;;;;;;5033817;28;20044;-70
2022/07/25 04:00:33;;;;;;;13.30;9.27;;;;;;;;;;5034037;28;20053;-71
2022/07/25 04:03:14;;;;;;;15.55;8.80;;;;;;;;;;5066727;28;20064;-69
2022/07/25 04:06:03;;;;;;;9.82;8.82;;;;;;;;;;5050212;28;20049;-72
2022/07/25 04:08:44;;;;;;;13.57;9.05;;;;;;;;;;5050059;28;20047;-70
2022/07/25 04:11:34;;;;;;;9.68;8.68;;;;;;;;;;5034236;28;20463;-71
2022/07/25 04:14:16;;;;;;;12.15;8.65;;;;;;;;;;5035958;28;20041;-70
2022/07/25 04:17:05;;;;;;;9.32;8.25;;;;;;;;;;5032657;28;20144;-71
2022/07/25 04:19:49;;;;;;;9.50;8.23;;;;;;;;;;5029413;28;20080;-68
2022/07/25 04:22:38;;;;;;;10.55;8.25;;;;;;;;;;5047113;28;20048;-67
2022/07/25 04:25:25;;;;;;;11.35;8.60;;;;;;;;;;5045690;28;20747;-68
2022/07/25 04:28:14;;;;;;;11.40;8.88;;;;;;;;;;5046990;28;20773;-69
2022/07/25 04:30:55;;;;;;;10.90;8.63;;;;;;;;;;5047107;28;20051;-68
2022/07/25 04:33:45;;;;;;;11.45;7.82;;;;;;;;;;5047272;28;20079;-69
2022/07/25 04:36:33;;;;;;;10.80;9.07;;;;;;;;;;5047208;28;20467;-69
2022/07/25 04:39:22;;;;;;;12.07;8.73;;;;;;;;;;5046272;28;20045;-69
2022/07/25 04:42:03;;;;;;;10.88;8.68;;;;;;;;;;5046853;28;20049;-67
2022/07/25 04:44:59;;;;;;;9.80;8.45;;;;;;;;;;5046336;28;20052;-69
2022/07/25 04:47:47;;;;;;;13.30;9.00;;;;;;;;;;5046820;28;20053;-69
2022/07/25 04:50:36;;;;;;;13.68;9.68;;;;;;;;;;5046335;28;20103;-66
2022/07/25 04:53:17;;;;;;;10.20;8.82;;;;;;;;;;5048932;28;20048;-67
2022/07/25 04:56:05;;;;;;;12.13;9.38;;;;;;;;;;5061894;28;20068;-67
2022/07/25 04:58:46;;;;;;;12.32;9.57;;;;;;;;;;5066618;28;20044;-68
2022/07/25 05:01:35;;;;;;;11.88;9.32;;;;;;;;;;5062364;28;20044;-68
2022/07/25 05:04:16;;;;;;;12.73;9.50;;;;;;;;;;5065810;28;20075;-68
2022/07/25 05:07:05;;;;;;;12.10;10.02;;;;;;;;;;5063771;28;20040;-67
2022/07/25 05:09:46;;;;;;;11.98;10.18;;;;;;;;;;5065852;28;20339;-68
2022/07/25 05:12:35;;;;;;;12.00;9.63;;;;;;;;;;5065573;28;20060;-67
2022/07/25 05:15:16;;;;;;;14.05;10.35;;;;;;;;;;5065931;28;20052;-69
2022/07/25 05:18:04;;;;;;;12.85;10.38;;;;;;;;;;5048330;28;20423;-68
2022/07/25 05:20:45;;;;;;;13.30;10.00;;;;;;;;;;5066113;28;20048;-66
2022/07/25 05:23:35;;;;;;;16.75;10.95;;;;;;;;;;5065768;28;20063;-68
2022/07/25 05:26:23;;;;;;;12.48;11.10;;;;;;;;;;5053651;28;20508;-68
2022/07/25 05:29:11;;;;;;;19.15;11.73;;;;;;;;;;5065366;28;20135;-68
2022/07/25 05:31:52;;;;;;;18.05;10.40;;;;;;;;;;5036397;28;20045;-67
2022/07/25 05:34:41;;;;;;;13.77;12.35;;;;;;;;;;5045213;28;20045;-67
2022/07/25 05:37:22;;;;;;;13.43;10.77;;;;;;;;;;5052245;28;20139;-69
2022/07/25 05:40:12;;;;;;;14.38;11.43;;;;;;;;;;5063748;28;20091;-67
2022/07/25 05:42:53;;;;;;;13.50;10.55;;;;;;;;;;5061313;28;20245;-69
2022/07/25 05:45:43;;;;;;;14.35;10.05;;;;;;;;;;5063228;28;20469;-69
2022/07/25 05:48:24;;;;;;;11.98;9.25;;;;;;;;;;5063716;28;20162;-68
2022/07/25 05:51:13;;;;;;;11.85;9.75;;;;;;;;;;5064377;28;20048;-68
2022/07/25 05:53:54;;;;;;;11.90;10.18;;;;;;;;;;5064563;28;20044;-70
2022/07/25 05:56:44;;;;;;;10.75;9.65;;;;;;;;;;5046571;28;20102;-69
2022/07/25 05:59:25;;;;;;;20.45;12.13;;;;;;;;;;5046639;28;20055;-69
2022/07/25 06:02:14;;;;;;;15.38;11.20;;;;;;;;;;5064590;28;20036;-69
2022/07/25 06:04:55;;;;;;;13.70;12.30;;;;;;;;;;5064685;28;20052;-70
2022/07/25 06:07:44;;;;;;;12.20;11.00;;;;;;;;;;5031805;28;20055;-69
2022/07/25 06:10:32;;;;;;;14.98;11.40;;;;;;;;;;5046325;28;20418;-69
2022/07/25 06:13:21;;;;;;;12.40;10.70;;;;;;;;;;5063763;28;20102;-69
2022/07/25 06:16:03;;;;;;;16.92;10.88;;;;;;;;;;5064278;28;20058;-67
2022/07/25 06:18:52;;;;;;;13.65;11.15;;;;;;;;;;5042469;28;20590;-69
2022/07/25 06:21:33;;;;;;;14.75;11.88;;;;;;;;;;5046449;28;20048;-72
2022/07/25 06:24:23;;;;;;;15.48;12.73;;;;;;;;;;5061980;28;20048;-70
2022/07/25 06:27:05;;;;;;;13.70;12.30;;;;;;;;;;5063304;28;20059;-70
2022/07/25 06:30:00;;;;;;;18.63;11.88;;;;;;;;;;5063962;28;20832;-70
2022/07/25 06:32:59;;;;;;;19.80;12.45;;;;;;;;;;5043550;28;20132;-71
2022/07/25 06:35:48;;;;;;;16.10;11.82;;;;;;;;;;5043732;28;20127;-70
2022/07/25 06:38:29;;;;;;;14.13;12.60;;;;;;;;;;5025770;28;20404;-70
2022/07/25 06:41:21;;;;;;;12.73;11.40;;;;;;;;;;5043765;28;20044;-71
2022/07/25 06:44:16;;;;;;;14.63;12.57;;;;;;;;;;5040075;28;20505;-71
2022/07/25 06:47:04;;;;;;;15.48;12.55;;;;;;;;;;5046547;28;20094;-69
2022/07/25 06:49:52;;;;;;;13.07;11.77;;;;;;;;;;5048439;28;20139;-68
2022/07/25 06:52:35;;;;;;;12.85;11.48;;;;;;;;;;5059914;28;20086;-69
2022/07/25 06:55:30;;;;;;;12.73;11.43;;;;;;;;;;5061897;28;20059;-69
2022/07/25 06:58:05;;;;;;;12.73;11.43;;;;;;;;;;5062906;28;20371;-69
2022/07/25 07:00:53;;;;;;;13.95;12.48;;;;;;;;;;5063920;28;20044;-70
2022/07/25 07:03:42;;;;;;;12.93;11.73;;;;;;;;;;5060329;28;20053;-69
2022/07/25 07:06:23;;;;;;;17.33;13.88;;;;;;;;;;5044659;28;20055;-69
2022/07/25 07:09:12;;;;;;;14.70;12.52;;;;;;;;;;5062365;28;20057;-69
2022/07/25 07:11:53;;;;;;;12.80;11.48;;;;;;;;;;5043473;28;20041;-70
2022/07/25 07:14:44;;;;;;;14.02;12.05;;;;;;;;;;5025497;28;20136;-69
2022/07/25 07:17:25;;;;;;;17.85;12.60;;;;;;;;;;5040058;28;20068;-71
2022/07/25 07:20:14;;;;;;;12.40;10.80;;;;;;;;;;5040091;28;20053;-70
2022/07/25 07:23:09;;;;;;;16.67;12.90;;;;;;;;;;5042183;28;20064;-71
2022/07/25 07:25:49;;;;;;;14.18;12.45;;;;;;;;;;5046339;28;20071;-71
2022/07/25 07:28:44;;;;;;;14.85;11.73;;;;;;;;;;5042510;28;20114;-70
2022/07/25 07:31:19;;;;;;;13.25;11.50;;;;;;;;;;5042307;28;20048;-71
2022/07/25 07:34:07;;;;;;;14.40;12.23;;;;;;;;;;5067220;28;20055;-71
2022/07/25 07:36:55;;;;;;;13.40;11.73;;;;;;;;;;5051009;28;20048;-72
2022/07/25 07:39:43;;;;;;;22.65;12.35;;;;;;;;;;5046131;28;20048;-72
2022/07/25 07:42:31;;;;;;;14.02;12.25;;;;;;;;;;5054630;28;20040;-71
2022/07/25 07:45:20;;;;;;;15.35;11.35;;;;;;;;;;5045993;28;20053;-71
2022/07/25 07:48:15;;;;;;;14.38;11.73;;;;;;;;;;5046050;28;20510;-72
2022/07/25 07:51:10;;;;;;;18.52;11.63;;;;;;;;;;5066070;28;20052;-71
2022/07/25 07:56:58;;;;;;;12.90;11.52;;;;;;;;;;5065662;28;20055;-70
2022/07/25 07:59:33;;;;;;;17.85;12.02;;;;;;;;;;5062314;28;20651;-71
2022/07/25 08:02:21;;;;;;;14.18;12.35;;;;;;;;;;5057314;28;20052;-71
2022/07/25 08:05:03;;;;;;;13.27;11.75;;;;;;;;;;5053875;28;20827;-70
2022/07/25 08:07:52;;;;;;;14.05;12.25;;;;;;;;;;5055073;28;20037;-70
2022/07/25 08:10:43;;;;;;;16.67;12.57;;;;;;;;;;5056187;28;20475;-71
2022/07/25 08:13:37;;;;;;;14.18;12.48;;;;;;;;;;5064469;28;20140;-71
2022/07/25 08:16:20;;;;;;;15.05;13.32;;;;;;;;;;5064914;28;20055;-71
2022/07/25 08:19:08;;;;;;;19.92;12.88;;;;;;;;;;5054047;28;20083;-69
2022/07/25 08:21:51;;;;;;;14.38;11.50;;;;;;;;;;5048507;28;20132;-70
2022/07/25 08:24:46;;;;;;;12.48;10.07;;;;;;;;;;5053849;28;20110;-70
2022/07/25 08:27:21;;;;;;;12.43;11.15;;;;;;;;;;5036808;28;20052;-69
2022/07/25 08:30:17;;;;;;;13.10;10.77;;;;;;;;;;5030324;28;20045;-70
2022/07/25 08:32:56;;;;;;;20.15;12.25;;;;;;;;;;5078289;28;20136;-70
2022/07/25 08:35:55;;;;;;;16.23;12.00;;;;;;;;;;5049725;28;20052;-70
2022/07/25 08:38:30;;;;;;;16.05;11.48;;;;;;;;;;5068774;28;20576;-70
2022/07/25 08:41:18;;;;;;;11.70;10.52;;;;;;;;;;5042128;28;20542;-70
2022/07/25 08:44:05;;;;;;;15.48;10.73;;;;;;;;;;5054793;28;20426;-71
2022/07/25 08:46:53;;;;;;;12.40;10.55;;;;;;;;;;5050876;28;20049;-70
2022/07/25 08:49:49;;;;;;;13.43;11.00;;;;;;;;;;5045964;28;20064;-69
2022/07/25 08:52:25;;;;;;;15.38;11.48;;;;;;;;;;5077173;28;20048;-71
2022/07/25 08:55:16;;;;;;;12.02;10.73;;;;;;;;;;5073740;28;20045;-70
2022/07/25 08:57:59;;;;;;;13.32;11.15;;;;;;;;;;5067260;28;20049;-69
2022/07/25 09:00:47;;;;;;;11.68;10.55;;;;;;;;;;5043625;28;20079;-70
2022/07/25 09:03:30;;;;;;;13.15;11.90;;;;;;;;;;5035806;28;20133;-70
2022/07/25 09:06:55;;;;;;;12.85;11.32;;;;;;;;;;4750445;27;9071884;-70
2022/07/25 09:09:47;;;;;;;12.45;11.20;;;;;;;;;;5099811;28;20067;-70
2022/07/25 09:12:36;;;;;;;17.30;12.20;;;;;;;;;;5089951;28;20466;-69
2022/07/25 09:15:28;;;;;;;12.48;11.25;;;;;;;;;;5098944;28;20316;-69
2022/07/25 09:18:17;;;;;;;14.13;11.88;;;;;;;;;;5074983;28;20147;-70
2022/07/25 09:23:48;;;;;;;15.73;12.53;;;;;;;;;;4777460;27;9017788;-69
2022/07/25 09:26:47;;;;;;;13.82;12.27;;;;;;;;;;5093381;28;20067;-70
2022/07/25 09:29:37;;;;;;;15.70;11.75;;;;;;;;;;5080190;28;20125;-69
2022/07/25 09:32:21;;;;;;;13.20;11.90;;;;;;;;;;5064462;28;20110;-67
2022/07/25 09:35:11;;;;;;;13.00;11.70;;;;;;;;;;5060850;28;20056;-68
2022/07/25 09:38:10;;;;;;;14.40;11.32;;;;;;;;;;5061581;28;20048;-67
2022/07/25 09:41:02;;;;;;;15.07;11.93;;;;;;;;;;5060403;28;20132;-67
2022/07/25 09:43:51;;;;;;;13.10;11.70;;;;;;;;;;5059585;28;20076;-67
2022/07/25 09:46:39;;;;;;;12.38;11.02;;;;;;;;;;5064972;28;20102;-68
2022/07/25 09:49:21;;;;;;;15.18;11.82;;;;;;;;;;5080898;28;20072;-67
2022/07/25 09:52:09;;;;;;;12.85;11.18;;;;;;;;;;5080352;28;20126;-67
2022/07/25 09:55:00;;;;;;;12.60;9.77;;;;;;;;;;5080179;28;20143;-68
2022/07/25 09:57:43;;;;;;;11.68;10.48;;;;;;;;;;5080685;28;20048;-69
2022/07/25 10:00:32;;;;;;;12.30;10.23;;;;;;;;;;5080368;28;20531;-69
2022/07/25 10:03:22;;;;;;;13.20;11.10;;;;;;;;;;5080020;28;20048;-68
2022/07/25 10:06:16;;;;;;;11.48;10.38;;;;;;;;;;5079928;28;20131;-69
2022/07/25 10:08:58;;;;;;;11.13;10.02;;;;;;;;;;5080005;28;20422;-69
2022/07/25 10:12:06;;;;;;;15.50;10.73;;;;;;;;;;5079564;28;20040;-70
2022/07/25 10:15:19;;;;;;;12.48;10.60;;;;;;;;;;5072752;28;20178;-69
2022/07/25 10:18:08;;;;;;;12.93;10.07;;;;;;;;;;5080052;28;20052;-68
2022/07/25 10:20:50;;;;;;;11.70;10.55;;;;;;;;;;5080482;28;20132;-68
2022/07/25 10:23:46;;;;;;;11.80;10.65;;;;;;;;;;5097973;28;20055;-68
2022/07/25 10:26:21;;;;;;;11.20;10.02;;;;;;;;;;5099525;28;20101;-67
2022/07/25 10:29:10;;;;;;;10.85;9.75;;;;;;;;;;5099889;28;20083;-68
2022/07/25 10:31:58;;;;;;;11.38;10.02;;;;;;;;;;5100600;28;20655;-70
2022/07/25 10:34:50;;;;;;;13.30;10.65;;;;;;;;;;5089802;28;20083;-68
2022/07/25 10:37:42;;;;;;;10.23;9.23;;;;;;;;;;5086937;28;20079;-69
2022/07/25 10:40:31;;;;;;;11.07;9.98;;;;;;;;;;5086958;28;20121;-70
2022/07/25 10:43:26;;;;;;;10.55;9.45;;;;;;;;;;5086896;28;20055;-69
2022/07/25 10:46:17;;;;;;;15.35;9.30;;;;;;;;;;5086435;28;20083;-68
2022/07/25 10:49:09;;;;;;;19.42;9.43;;;;;;;;;;5086949;28;20131;-68
2022/07/25 10:51:56;;;;;;;9.75;8.75;;;;;;;;;;5086983;28;20182;-68
2022/07/25 10:54:44;;;;;;;12.63;9.95;;;;;;;;;;5086760;28;20048;-69
2022/07/25 10:57:26;;;;;;;11.30;9.00;;;;;;;;;;5086446;28;20605;-69
2022/07/25 11:00:15;;;;;;;9.55;8.63;;;;;;;;;;5085603;28;20047;-68
2022/07/25 11:02:57;;;;;;;10.15;9.07;;;;;;;;;;5086890;28;20075;-69
2022/07/25 11:05:54;;;;;;;10.60;9.38;;;;;;;;;;5085915;28;20558;-68
2022/07/25 11:08:36;;;;;;;10.32;9.23;;;;;;;;;;5085291;28;20175;-67
2022/07/25 11:11:25;;;;;;;10.27;8.25;;;;;;;;;;5086286;28;20144;-68
2022/07/25 11:14:17;;;;;;;11.55;9.98;;;;;;;;;;5087028;28;20475;-69
2022/07/25 11:17:19;;;;;;;11.50;9.63;;;;;;;;;;5086451;28;20067;-70
2022/07/25 11:20:03;;;;;;;9.90;8.40;;;;;;;;;;5086770;28;20098;-69
2022/07/25 11:23:00;;;;;;;9.35;7.95;;;;;;;;;;5072184;28;20123;-69
2022/07/25 11:25:55;;;;;;;12.20;8.13;;;;;;;;;;5064416;28;20048;-72
2022/07/25 11:28:46;;;;;;;12.00;8.85;;;;;;;;;;5082430;28;20040;-70
2022/07/25 11:31:28;;;;;;;9.70;8.70;;;;;;;;;;5076430;28;20052;-70
2022/07/25 11:34:17;;;;;;;10.55;9.48;;;;;;;;;;5084919;28;20134;-70
2022/07/25 11:37:06;;;;;;;14.65;9.23;;;;;;;;;;5085632;28;20109;-70
2022/07/25 11:39:48;;;;;;;11.15;9.60;;;;;;;;;;5085874;28;20051;-70
2022/07/25 11:42:47;;;;;;;9.77;8.82;;;;;;;;;;5085278;28;20048;-71
2022/07/25 11:45:32;;;;;;;9.95;8.95;;;;;;;;;;4730782;28;10000945;-69
2022/07/25 11:48:21;;;;;;;16.85;9.77;;;;;;;;;;5081962;28;20158;-71
2022/07/25 11:51:16;;;;;;;11.10;9.52;;;;;;;;;;5084644;28;20105;-71
2022/07/25 11:54:12;;;;;;;12.70;9.85;;;;;;;;;;5083803;28;20056;-69
2022/07/25 11:56:54;;;;;;;9.68;8.73;;;;;;;;;;5082207;28;20052;-70
2022/07/25 11:59:48;;;;;;;11.40;8.93;;;;;;;;;;5083245;28;20146;-69
2022/07/25 12:02:43;;;;;;;14.70;9.15;;;;;;;;;;5082737;28;20051;-69
2022/07/25 12:05:37;;;;;;;11.15;9.88;;;;;;;;;;5065171;28;20086;-70
2022/07/25 12:08:26;;;;;;;16.15;12.00;;;;;;;;;;5063929;28;20531;-69
2022/07/25 12:11:23;;;;;;;16.17;12.13;;;;;;;;;;5065514;28;20049;-69
2022/07/25 12:14:05;;;;;;;21.45;14.32;;;;;;;;;;5068466;28;20052;-69
2022/07/25 12:16:54;;;;;;;15.98;13.30;;;;;;;;;;5083064;28;20721;-70
2022/07/25 12:19:38;;;;;;;15.73;13.00;;;;;;;;;;5081926;28;20052;-70
2022/07/25 12:22:26;;;;;;;15.23;12.70;;;;;;;;;;5064901;28;21522;-69
2022/07/25 12:25:08;;;;;;;17.67;12.70;;;;;;;;;;5087741;28;20593;-69
2022/07/25 12:27:57;;;;;;;18.30;13.85;;;;;;;;;;5087846;28;20043;-70
2022/07/25 12:30:39;;;;;;;15.48;13.55;;;;;;;;;;5085270;28;20048;-70
2022/07/25 12:33:35;;;;;;;18.83;12.98;;;;;;;;;;5081994;28;20190;-71
2022/07/25 12:36:17;;;;;;;22.40;13.90;;;;;;;;;;5084807;28;20075;-72
2022/07/25 12:39:04;;;;;;;16.65;12.93;;;;;;;;;;5075787;28;20405;-69
2022/07/25 12:41:59;;;;;;;17.92;13.63;;;;;;;;;;5081300;28;20101;-70
2022/07/25 12:44:35;;;;;;;23.90;14.95;;;;;;;;;;5085104;28;20443;-70
2022/07/25 12:47:29;;;;;;;19.73;13.15;;;;;;;;;;5083100;28;20047;-70
2022/07/25 12:50:05;;;;;;;16.65;12.40;;;;;;;;;;5079225;28;20387;-70
2022/07/25 12:52:59;;;;;;;17.42;12.02;;;;;;;;;;5084701;28;20134;-70
2022/07/25 12:55:34;;;;;;;14.05;11.70;;;;;;;;;;4729963;28;10000081;-69
2022/07/25 12:58:23;;;;;;;16.25;11.73;;;;;;;;;;5079267;28;20144;-69
2022/07/25 13:01:06;;;;;;;18.42;11.93;;;;;;;;;;5063351;28;20048;-69
2022/07/25 13:04:03;;;;;;;17.92;12.63;;;;;;;;;;5087647;28;20054;-69
2022/07/25 13:06:38;;;;;;;19.15;13.65;;;;;;;;;;5078930;28;20144;-70
2022/07/25 13:09:27;;;;;;;17.70;13.52;;;;;;;;;;5079919;28;20060;-71
2022/07/25 13:12:09;;;;;;;15.68;12.05;;;;;;;;;;5081844;28;20075;-67
2022/07/25 13:14:58;;;;;;;18.42;13.05;;;;;;;;;;5081787;28;20110;-71
2022/07/25 13:17:39;;;;;;;16.20;12.45;;;;;;;;;;5080681;28;20867;-70
2022/07/25 13:20:28;;;;;;;18.88;13.05;;;;;;;;;;5078824;28;20147;-68
2022/07/25 13:23:16;;;;;;;15.50;13.00;;;;;;;;;;5082522;28;20501;-70
2022/07/25 13:26:06;;;;;;;19.90;12.90;;;;;;;;;;5076685;28;20060;-71
2022/07/25 13:29:02;;;;;;;19.60;12.68;;;;;;;;;;5062046;28;20064;-71
2022/07/25 13:31:39;;;;;;;15.20;12.55;;;;;;;;;;5063264;28;20048;-67
2022/07/25 13:34:29;;;;;;;19.60;13.85;;;;;;;;;;5063028;28;20132;-70
2022/07/25 13:37:11;;;;;;;20.85;13.55;;;;;;;;;;5062351;28;20052;-69
2022/07/25 13:40:00;;;;;;;14.75;12.23;;;;;;;;;;5063332;28;20479;-69
2022/07/25 13:42:47;;;;;;;17.52;13.30;;;;;;;;;;5060203;28;20045;-70
2022/07/25 13:45:29;;;;;;;23.65;13.23;;;;;;;;;;5043550;28;20473;-69
2022/07/25 13:48:18;;;;;;;32.35;13.18;;;;;;;;;;5042945;28;20041;-69
2022/07/25 13:51:10;;;;;;;20.98;11.95;;;;;;;;;;5063847;28;20151;-69
2022/07/25 13:53:59;;;;;;;16.08;12.13;;;;;;;;;;5042014;28;20635;-68
2022/07/25 13:56:48;;;;;;;13.85;11.52;;;;;;;;;;5063220;28;20095;-70
2022/07/25 13:59:37;;;;;;;13.13;11.10;;;;;;;;;;5042729;28;20131;-69
2022/07/25 14:02:19;;;;;;;15.70;11.20;;;;;;;;;;5043347;28;20063;-70
2022/07/25 14:05:08;;;;;;;12.95;10.43;;;;;;;;;;5045520;28;20052;-69
2022/07/25 14:07:50;;;;;;;15.10;10.98;;;;;;;;;;5063472;28;20048;-67
2022/07/25 14:10:38;;;;;;;13.65;11.43;;;;;;;;;;5051759;28;20098;-68
2022/07/25 14:13:20;;;;;;;18.58;10.75;;;;;;;;;;5067286;28;20123;-70
2022/07/25 14:16:09;;;;;;;16.30;11.52;;;;;;;;;;4711266;28;9999735;-70
2022/07/25 14:19:06;;;;;;;17.05;12.50;;;;;;;;;;5065676;28;20044;-71
2022/07/25 14:21:41;;;;;;;16.65;10.77;;;;;;;;;;5049065;28;20044;-68
2022/07/25 14:24:30;;;;;;;15.95;11.05;;;;;;;;;;5056158;28;20426;-69
2022/07/25 14:27:18;;;;;;;13.90;11.65;;;;;;;;;;5074481;27;20048;-69
2022/07/25 14:30:14;;;;;;;11.32;9.48;;;;;;;;;;5076752;27;20060;-73
2022/07/25 14:33:03;;;;;;;10.68;9.50;;;;;;;;;;5056458;28;20065;-66
2022/07/25 14:35:45;;;;;;;12.82;9.25;;;;;;;;;;5067905;28;20064;-66
2022/07/25 14:38:40;;;;;;;12.40;8.85;;;;;;;;;;5067400;28;20052;-69
2022/07/25 14:41:16;;;;;;;13.65;9.32;;;;;;;;;;5066897;28;20482;-71
2022/07/25 14:44:05;;;;;;;14.57;9.50;;;;;;;;;;5059751;28;20056;-70
2022/07/25 14:46:55;;;;;;;14.57;9.80;;;;;;;;;;5066188;28;20068;-71
2022/07/25 14:49:56;;;;;;;14.15;9.43;;;;;;;;;;5067837;28;20640;-69
2022/07/25 14:52:31;;;;;;;15.65;9.05;;;;;;;;;;5066588;28;20048;-72
2022/07/25 14:55:26;;;;;;;14.30;10.50;;;;;;;;;;5040017;28;20519;-72
2022/07/25 14:58:02;;;;;;;15.35;10.88;;;;;;;;;;5028877;28;20072;-67
2022/07/25 15:00:51;;;;;;;14.20;10.02;;;;;;;;;;5061736;28;20052;-71
2022/07/25 15:03:40;;;;;;;14.93;10.90;;;;;;;;;;5064654;28;20153;-71
2022/07/25 15:06:22;;;;;;;18.17;10.35;;;;;;;;;;4669037;28;9999974;-66
2022/07/25 15:09:10;;;;;;;12.10;10.02;;;;;;;;;;5064937;28;20490;-70
2022/07/25 15:11:52;;;;;;;13.35;9.95;;;;;;;;;;5077602;28;20044;-68
2022/07/25 15:14:42;;;;;;;21.55;10.65;;;;;;;;;;5084943;28;20052;-67
2022/07/25 15:17:30;;;;;;;12.02;9.50;;;;;;;;;;5085335;28;20070;-71
2022/07/25 15:20:18;;;;;;;16.90;10.57;;;;;;;;;;5085111;28;20392;-69
2022/07/25 15:23:00;;;;;;;16.35;11.63;;;;;;;;;;5086293;28;20057;-67
2022/07/25 15:25:47;;;;;;;14.50;10.52;;;;;;;;;;5084915;28;20083;-72
2022/07/25 15:28:44;;;;;;;14.50;9.90;;;;;;;;;;5079473;28;20052;-69
2022/07/25 15:31:25;;;;;;;14.43;9.82;;;;;;;;;;5064706;28;20079;-72
2022/07/25 15:34:14;;;;;;;12.65;9.63;;;;;;;;;;5053755;28;20048;-69
2022/07/25 15:36:56;;;;;;;12.93;10.02;;;;;;;;;;5064341;28;20472;-71
2022/07/25 15:39:45;;;;;;;13.65;9.77;;;;;;;;;;5063192;28;20145;-71
2022/07/25 15:42:27;;;;;;;14.20;10.35;;;;;;;;;;5062005;28;20489;-71
2022/07/25 15:45:22;;;;;;;12.45;9.63;;;;;;;;;;5063374;28;20118;-69
2022/07/25 15:48:07;;;;;;;18.33;10.45;;;;;;;;;;5044047;28;20480;-70
2022/07/25 15:51:02;;;;;;;14.00;9.98;;;;;;;;;;5064587;28;20476;-69
2022/07/25 15:53:37;;;;;;;12.80;9.85;;;;;;;;;;5064152;28;20135;-70
2022/07/25 15:56:32;;;;;;;14.75;9.90;;;;;;;;;;5061824;28;20076;-69
2022/07/25 15:59:07;;;;;;;12.77;9.80;;;;;;;;;;5047310;28;20049;-72
2022/07/25 16:01:56;;;;;;;14.00;10.13;;;;;;;;;;5065236;28;20136;-68
2022/07/25 16:04:38;;;;;;;15.80;11.15;;;;;;;;;;5063096;28;20492;-69
2022/07/25 16:07:33;;;;;;;21.33;10.75;;;;;;;;;;5064256;28;20052;-68
2022/07/25 16:10:08;;;;;;;14.10;10.48;;;;;;;;;;5063976;28;20053;-67
2022/07/25 16:12:57;;;;;;;16.00;10.80;;;;;;;;;;5066221;28;20052;-67
2022/07/25 16:15:39;;;;;;;13.70;10.95;;;;;;;;;;5058433;28;20070;-70
2022/07/25 16:18:28;;;;;;;14.18;11.20;;;;;;;;;;5065818;28;20144;-69
2022/07/25 16:21:16;;;;;;;17.70;12.38;;;;;;;;;;5066263;28;20762;-68
2022/07/25 16:23:58;;;;;;;13.45;11.98;;;;;;;;;;5066176;28;20060;-69
2022/07/25 16:26:47;;;;;;;19.30;12.43;;;;;;;;;;4695740;28;10001274;-69